Hinesville, GA (31310)

2:18 PM EDT on October 02, 2014 (GMT -0400)
Elim / Davenport Acres - Long County | Change Station
CLOSE
Current Station
Personal Weather Station
Location: Ludowici, GA
Elevation: 27 m
Nearby Weather Stations

Elev 27 m 31.79 °N, 81.69 °W | Updated 7 seconds ago

Partly Cloudy
Partly Cloudy
28.9 °C
Feels Like 31 °C
N
13.0
Wind Variable Wind from ESE
Gusts 13.0 km/h

Today
High -- | Low -- °C
--% Chance of Precip.
Yesterday
High -- | Low -- °C
Precip. -- mm
7:20 AM 7:10 PM
First Quarter, 61% visible
Pressure 1018 hPa
Visibility 16.1 kilometers
Clouds Scattered Clouds 1524 m
Heat Index 31 °C
Dew Point 20 °C
Humidity 58%
Rainfall 0 mm
Snow Depth Not available.
UV 7 out of 12
Pollen 6.60 out of 12
Air Quality Not available.
Flu Activity Not available.
METAR KLHW 021805Z COR 06009KT 10SM SCT050 29/17 A3006 RMK AO2A SLP182

More Conditions Fewer Conditions

Pressure 1018 hPa
Visibility 16.1 kilometers
Clouds Scattered Clouds 1524 m
Heat Index 31 °C
Dew Point 20 °C
Humidity 58%
Rainfall 0 mm
Snow Depth Not available.
UV 7 out of 12
Pollen 6.60 out of 12
Air Quality Not available.
Flu Activity Not available.
METAR KLHW 021805Z COR 06009KT 10SM SCT050 29/17 A3006 RMK AO2A SLP182

More Conditions Fewer Conditions

10-Day Weather Forecast

Almanac

Astronomy

Oct. 02, 2014 Rise Set
Actual Time 7:20 AM EDT 7:10 PM EDT
Civil Twilight 6:56 AM EDT 7:34 PM EDT
Nautical Twilight 6:28 AM EDT 8:02 PM EDT
Astronomical Twilight 5:59 AM EDT 8:30 PM EDT
Moon 2:56 PM EDT 12:56 AM EDT
Length of Visible Light 12h 37m
Length of Day
11h 49m
Tomorrow will be 1m 56s shorter.
First Quarter, 61% of the Moon is Illuminated
Today
First Quarter
Oct 8
Full
Oct 15
Last Quarter
Oct 23
New
Oct 30
First Quarter

Today's Extremes

State Highs State Lows

Community

WunderPhotos

Upload Photos

1,758,316 photos uploaded!

WunderBlogs® & News

Nearby

Snow Depth

Station Depth Elevation
No new snow has been reported.

Earthquake Activity

City Distance Mag. Time & Date
No recent earthquake activity has been reported nearby.
Minimum magnitude displayed is 2.5.

Coastal Water Temperatures

Place Temperature
No Stations Reporting

Nearby Weather Stations